Página principal
METAR-TAF:

METAR-TAF

Aeroportos :

Aeroporto Internacional Jinnah

Carachi, Paquistão

latitude: 24-54N, longitude: 067-08E, altura: 21 m

Observação actual do tempo

O boletim foi feito há 15 minutos, às 00:25 UTC
Vento calmo
Temperatura 12°C
Humidade 58%
Pressão 1022 hPa
Visibilidade: 6000 m

METAR: OPKC 140025Z 00000KT 6000 NSC 12/04 Q1022 NOSIG

Hora: 05:40 (00:40 UTC)

Previsão

O boletim foi feito há 2 horas e 40 minutos, às 22:00 UTC
Previsão válida de 14 às 00 UTC a 15 às 06 UTC
Vento 10 kt de es-nordeste com rajadas de 20 kt
Visibilidade: 6000 m
Temporariamente
de 14 às 00 UTC a 14 às 04 UTC
Vento 8 kt de este
Visibilidade: 3000 m
fumo
Temporariamente
de 15 às 00 UTC a 15 às 04 UTC
Vento 15 kt de es-nordeste
Visibilidade: 3000 m
bruma

TAF: OPKC 132200Z 1400/1506 06010G20KT 6000 NSC TEMPO 1400/1404 08008KT 3000 FU NSC TEMPO 1500/1504 07015KT 3000 HZ NSC

Observações e previsões do tempo de mais de 4000 aeroportos (mensagens METAR e TAF).

As estações disponíveis são os pontos amarelos e vermelhos sobre o mapa.

Mova o rato sobre o mapa para ver o nome da estação.

Depois clique no ponto para visualizar as observações e previsões meteorológicas.

Para alterar o mapa : clique nos botões verdes com uma cruz preta para aumentar o zoom; no botão verde com uma pitada de zoom; ou nas setas verdes para mapas adjacentes.


METAR-TAF: